createdAt,value
2022-09-12T00:00:31.462Z,100635.79
2022-09-12T00:03:19.273Z,100633.08
2022-09-12T00:06:11.636Z,100634.57
2022-09-12T00:09:01.331Z,100633.65
2022-09-12T00:11:59.614Z,100637.61
2022-09-12T00:14:47.600Z,100637.64
2022-09-12T00:17:24.225Z,100638.80
2022-09-12T00:20:13.222Z,100639.06
2022-09-12T00:23:30.136Z,100633.06
2022-09-12T00:26:18.546Z,100637.44
2022-09-12T00:29:12.349Z,100640.42
2022-09-12T00:32:13.191Z,100640.02
2022-09-12T00:35:29.059Z,100641.27
2022-09-12T00:38:41.316Z,100638.27
2022-09-12T00:41:34.845Z,100640.01
2022-09-12T00:44:43.829Z,100639.55
2022-09-12T00:47:29.003Z,100640.30
2022-09-12T00:50:21.168Z,100642.55
2022-09-12T00:53:13.177Z,100641.91
2022-09-12T00:55:53.163Z,100641.45
2022-09-12T00:58:54.295Z,100639.96
2022-09-12T01:01:32.598Z,100637.34
2022-09-12T01:04:49.587Z,100640.95
2022-09-12T01:07:39.898Z,100638.08
2022-09-12T01:10:16.109Z,100635.14
2022-09-12T01:13:09.796Z,100637.79
2022-09-12T01:15:41.346Z,100628.45
2022-09-12T01:18:32.414Z,100628.33
2022-09-12T01:21:18.469Z,100624.27
2022-09-12T01:24:05.757Z,100625.67
2022-09-12T01:26:54.516Z,100622.95
2022-09-12T01:29:39.729Z,100620.82
2022-09-12T01:32:45.641Z,100621.73
2022-09-12T01:35:20.922Z,100619.48
2022-09-12T01:38:23.472Z,100620.11
2022-09-12T01:41:05.330Z,100619.53
2022-09-12T01:43:55.624Z,100619.98
2022-09-12T01:46:33.364Z,100617.34
2022-09-12T01:49:11.192Z,100618.87
2022-09-12T01:51:42.383Z,100619.79
2022-09-12T01:54:22.024Z,100621.06
2022-09-12T01:57:01.692Z,100619.20
2022-09-12T01:59:41.512Z,100614.94
2022-09-12T02:02:16.495Z,100618.02
2022-09-12T02:05:06.427Z,100626.41
2022-09-12T02:08:02.146Z,100630.16
2022-09-12T02:10:35.064Z,100623.96
2022-09-12T02:13:30.965Z,100625.20
2022-09-12T02:16:32.118Z,100626.45
2022-09-12T02:19:07.382Z,100626.71
2022-09-12T02:21:53.525Z,100619.73
2022-09-12T02:24:25.908Z,100621.60
2022-09-12T02:26:57.875Z,100623.90
2022-09-12T02:29:28.076Z,100623.73
2022-09-12T02:32:21.686Z,100622.44
2022-09-12T02:34:57.870Z,100628.73
2022-09-12T02:37:45.967Z,100628.56
2022-09-12T02:40:37.513Z,100626.06
2022-09-12T02:43:11.016Z,100629.31
2022-09-12T02:46:11.542Z,100625.23
2022-09-12T02:48:56.004Z,100626.02
2022-09-12T02:51:34.136Z,100627.09
2022-09-12T02:54:02.618Z,100624.08
2022-09-12T02:56:50.512Z,100622.88
2022-09-12T02:59:19.516Z,100622.69
2022-09-12T03:02:27.695Z,100620.06
2022-09-12T03:05:17.114Z,100619.98
2022-09-12T03:08:05.070Z,100616.00
2022-09-12T03:10:56.842Z,100613.45
2022-09-12T03:13:47.354Z,100610.96
2022-09-12T03:16:23.129Z,100611.20
2022-09-12T03:19:08.700Z,100615.72
2022-09-12T03:22:04.302Z,100614.27
2022-09-12T03:24:57.458Z,100612.88
2022-09-12T03:27:30.574Z,100614.58
2022-09-12T03:30:19.572Z,100616.63
2022-09-12T03:32:58.560Z,100618.43
2022-09-12T03:35:37.494Z,100620.34
2022-09-12T03:38:28.196Z,100625.30
2022-09-12T03:41:12.685Z,100631.73
2022-09-12T03:44:00.730Z,100627.66
2022-09-12T03:47:11.294Z,100631.65
2022-09-12T03:49:59.658Z,100635.14
2022-09-12T03:52:49.332Z,100639.15
2022-09-12T03:55:58.220Z,100636.36
2022-09-12T03:59:06.644Z,100635.58
2022-09-12T04:02:28.805Z,100628.90
2022-09-12T04:05:08.236Z,100628.27
2022-09-12T04:07:56.138Z,100629.47
2022-09-12T04:11:13.699Z,100626.05
2022-09-12T04:13:52.779Z,100631.97
2022-09-12T04:16:51.310Z,100629.64
2022-09-12T04:19:59.474Z,100631.02
2022-09-12T04:23:07.208Z,100631.08
2022-09-12T04:25:55.392Z,100630.59
2022-09-12T04:28:54.176Z,100631.29
2022-09-12T04:31:43.963Z,100636.72
2022-09-12T04:34:30.472Z,100642.32
2022-09-12T04:37:23.060Z,100654.66
2022-09-12T04:40:11.038Z,100652.58
2022-09-12T04:42:43.837Z,100650.21
2022-09-12T04:45:17.759Z,100641.84
2022-09-12T04:48:14.766Z,100641.70
2022-09-12T04:51:11.633Z,100644.31
2022-09-12T04:54:05.692Z,100646.77
2022-09-12T04:56:54.322Z,100643.86
2022-09-12T04:59:27.283Z,100640.91
2022-09-12T05:02:04.382Z,100643.43
2022-09-12T05:04:55.819Z,100646.09
2022-09-12T05:07:44.751Z,100648.13
2022-09-12T05:10:17.765Z,100650.48
2022-09-12T05:12:56.924Z,100658.62
2022-09-12T05:15:55.363Z,100656.38
2022-09-12T05:18:30.671Z,100660.16
2022-09-12T05:21:24.753Z,100662.08
2022-09-12T05:24:08.879Z,100664.96
2022-09-12T05:26:50.664Z,100664.02
2022-09-12T05:29:35.659Z,100668.42
2022-09-12T05:32:23.575Z,100666.95
2022-09-12T05:35:04.597Z,100665.46
2022-09-12T05:37:55.606Z,100673.26
2022-09-12T05:40:36.457Z,100679.28
2022-09-12T05:43:34.002Z,100678.44
2022-09-12T05:46:25.182Z,100681.15
2022-09-12T05:49:13.314Z,100680.52
2022-09-12T05:51:49.248Z,100678.91
2022-09-12T05:54:47.393Z,100683.58
2022-09-12T05:57:34.389Z,100684.62
2022-09-12T06:00:45.343Z,100686.38
2022-09-12T06:03:36.813Z,100682.42
2022-09-12T06:06:13.098Z,100684.58
2022-09-12T06:09:10.138Z,100676.86
2022-09-12T06:12:04.525Z,100685.64
2022-09-12T06:14:50.870Z,100685.05
2022-09-12T06:17:43.357Z,100688.31
2022-09-12T06:20:51.469Z,100693.41
2022-09-12T06:23:48.660Z,100694.64
2022-09-12T06:29:55.136Z,100697.33
2022-09-12T06:33:02.978Z,100702.39
2022-09-12T06:36:12.665Z,100705.55
2022-09-12T06:39:03.253Z,100708.71
2022-09-12T06:41:52.096Z,100710.00
2022-09-12T06:44:41.272Z,100711.96
2022-09-12T06:47:49.430Z,100710.73
2022-09-12T06:50:41.484Z,100706.17
2022-09-12T06:53:32.790Z,100702.41
2022-09-12T06:56:26.361Z,100706.52
2022-09-12T06:59:24.889Z,100711.56
2022-09-12T07:02:39.638Z,100714.30
2022-09-12T07:05:55.697Z,100713.91
2022-09-12T07:08:45.805Z,100720.45
2022-09-12T07:11:34.678Z,100725.89
2022-09-12T07:14:49.706Z,100731.55
2022-09-12T07:17:32.046Z,100730.55
2022-09-12T07:20:40.486Z,100729.48
2022-09-12T07:23:52.253Z,100726.73
2022-09-12T07:26:30.889Z,100723.95
2022-09-12T07:29:37.443Z,100728.13
2022-09-12T07:32:26.136Z,100731.82
2022-09-12T07:34:56.784Z,100734.66
2022-09-12T07:38:01.239Z,100733.67
2022-09-12T07:40:49.869Z,100740.21
2022-09-12T07:43:41.852Z,100736.69
2022-09-12T07:46:50.671Z,100737.17
2022-09-12T07:49:21.808Z,100737.03
2022-09-12T07:52:30.538Z,100742.96
2022-09-12T07:55:32.868Z,100743.60
2022-09-12T07:59:35.372Z,100744.30
2022-09-12T08:02:16.027Z,100742.30
2022-09-12T08:04:54.408Z,100744.14
2022-09-12T08:07:42.278Z,100742.42
2022-09-12T08:10:33.376Z,100739.14
2022-09-12T08:13:24.086Z,100745.76
2022-09-12T08:16:32.902Z,100753.80
2022-09-12T08:19:05.976Z,100754.74
2022-09-12T08:21:46.845Z,100758.27
2022-09-12T08:24:17.802Z,100758.48
2022-09-12T08:27:05.967Z,100758.69
2022-09-12T08:29:54.953Z,100756.88
2022-09-12T08:32:42.862Z,100754.11
2022-09-12T08:35:17.796Z,100756.16
2022-09-12T08:37:48.012Z,100758.50
2022-09-12T08:40:43.308Z,100757.19
2022-09-12T08:43:52.013Z,100761.23
2022-09-12T08:46:37.943Z,100761.49
2022-09-12T08:49:09.988Z,100764.09
2022-09-12T08:52:05.461Z,100767.70
2022-09-12T08:54:33.687Z,100771.38
2022-09-12T08:57:21.589Z,100774.80
2022-09-12T09:00:04.434Z,100778.55
2022-09-12T09:03:04.258Z,100778.67
2022-09-12T09:06:00.951Z,100781.77
2022-09-12T09:08:42.558Z,100781.69
2022-09-12T09:11:54.190Z,100783.78
2022-09-12T09:14:48.806Z,100786.13
2022-09-12T09:17:51.836Z,100791.21
2022-09-12T09:20:34.033Z,100791.98
2022-09-12T09:23:20.126Z,100790.85
2022-09-12T09:26:14.183Z,100788.04
2022-09-12T09:28:46.265Z,100786.84
2022-09-12T09:31:55.425Z,100783.49
2022-09-12T09:34:29.389Z,100789.84
2022-09-12T09:37:19.513Z,100792.02
2022-09-12T09:39:57.511Z,100791.54
2022-09-12T09:42:30.873Z,100796.13
2022-09-12T09:45:00.108Z,100801.92
2022-09-12T09:47:39.939Z,100802.63
2022-09-12T09:50:29.672Z,100797.38
2022-09-12T09:53:27.264Z,100803.00
2022-09-12T09:56:01.228Z,100807.11
2022-09-12T09:58:43.150Z,100811.96
2022-09-12T10:01:16.017Z,100819.82
2022-09-12T10:03:51.516Z,100824.77
2022-09-12T10:06:46.458Z,100820.14
2022-09-12T10:09:25.467Z,100812.93
2022-09-12T10:11:57.138Z,100811.59
2022-09-12T10:14:30.533Z,100817.75
2022-09-12T10:17:33.150Z,100817.40
2022-09-12T10:20:22.021Z,100815.35
2022-09-12T10:22:59.524Z,100817.06
2022-09-12T10:25:48.038Z,100821.70
2022-09-12T10:28:21.968Z,100825.69
2022-09-12T10:30:55.605Z,100819.73
2022-09-12T10:33:26.283Z,100819.98
2022-09-12T10:36:19.364Z,100826.86
2022-09-12T10:39:19.340Z,100833.17
2022-09-12T10:42:05.356Z,100832.89
2022-09-12T10:44:38.132Z,100835.71
2022-09-12T10:47:28.291Z,100837.23
2022-09-12T10:50:22.931Z,100837.98
2022-09-12T10:52:50.961Z,100837.45
2022-09-12T10:55:45.501Z,100835.63
2022-09-12T10:58:24.079Z,100833.48
2022-09-12T11:01:09.397Z,100837.72
2022-09-12T11:03:48.595Z,100842.29
2022-09-12T11:06:32.318Z,100839.73
2022-09-12T11:09:19.696Z,100842.27
2022-09-12T11:12:11.022Z,100839.80
2022-09-12T11:14:51.507Z,100836.75
2022-09-12T11:17:25.754Z,100836.55
2022-09-12T11:20:03.538Z,100842.13
2022-09-12T11:22:54.530Z,100838.63
2022-09-12T11:25:33.420Z,100844.20
2022-09-12T11:28:26.661Z,100843.89
2022-09-12T11:31:05.294Z,100844.50
2022-09-12T11:33:43.181Z,100845.17
2022-09-12T11:36:30.893Z,100850.44
2022-09-12T11:39:12.860Z,100853.75
2022-09-12T11:41:48.060Z,100855.21
2022-09-12T11:44:18.988Z,100856.77
2022-09-12T11:46:56.436Z,100852.71
2022-09-12T11:49:35.432Z,100852.21
2022-09-12T11:52:24.591Z,100855.48
2022-09-12T11:54:59.982Z,100854.84
2022-09-12T11:57:33.687Z,100855.33
2022-09-12T12:00:15.433Z,100854.85
2022-09-12T12:03:08.628Z,100854.98
2022-09-12T12:05:49.593Z,100857.96
2022-09-12T12:08:40.166Z,100858.52
2022-09-12T12:11:26.560Z,100859.45
2022-09-12T12:13:57.178Z,100855.58
2022-09-12T12:16:27.508Z,100857.23
2022-09-12T12:18:59.218Z,100849.89
2022-09-12T12:21:34.327Z,100848.34
2022-09-12T12:24:26.091Z,100853.30
2022-09-12T12:27:24.251Z,100858.70
2022-09-12T12:30:01.273Z,100861.14
2022-09-12T12:32:47.705Z,100857.12
2022-09-12T12:35:39.774Z,100858.97
2022-09-12T12:38:27.877Z,100860.21
2022-09-12T12:41:13.673Z,100860.73
2022-09-12T12:43:45.371Z,100870.46
2022-09-12T12:46:21.009Z,100869.49
2022-09-12T12:49:04.766Z,100876.55
2022-09-12T12:52:02.020Z,100882.48
2022-09-12T12:54:53.198Z,100884.57
2022-09-12T12:57:31.333Z,100881.13
2022-09-12T13:00:29.417Z,100883.50
2022-09-12T13:03:31.563Z,100892.84
2022-09-12T13:06:29.807Z,100891.42
2022-09-12T13:09:05.323Z,100890.02
2022-09-12T13:11:39.142Z,100892.38
2022-09-12T13:14:37.056Z,100899.11
2022-09-12T13:17:17.657Z,100903.04
2022-09-12T13:20:34.258Z,100903.70
2022-09-12T13:23:21.501Z,100903.55
2022-09-12T13:25:53.523Z,100904.11
2022-09-12T13:28:31.827Z,100904.16
2022-09-12T13:31:03.375Z,100911.55
2022-09-12T13:34:04.831Z,100910.06
2022-09-12T13:36:49.119Z,100903.60
2022-09-12T13:39:49.276Z,100900.30
2022-09-12T13:42:31.697Z,100904.59
2022-09-12T13:45:20.057Z,100909.51
2022-09-12T13:48:19.526Z,100906.61
2022-09-12T13:51:23.007Z,100909.42
2022-09-12T13:54:02.473Z,100908.16
2022-09-12T13:56:48.218Z,100911.92
2022-09-12T13:59:24.827Z,100910.86
2022-09-12T14:01:55.265Z,100911.89
2022-09-12T14:04:44.783Z,100918.03
2022-09-12T14:07:21.790Z,100916.79
2022-09-12T14:10:32.565Z,100913.21
2022-09-12T14:13:21.430Z,100908.77
2022-09-12T14:19:40.580Z,100905.30
2022-09-12T14:22:58.179Z,100906.86
2022-09-12T14:25:47.256Z,100908.61
2022-09-12T14:28:47.481Z,100904.91
2022-09-12T14:31:36.636Z,100906.45
2022-09-12T14:34:24.472Z,100911.25
2022-09-12T14:37:43.281Z,100912.24
2022-09-12T14:40:18.471Z,100914.77
2022-09-12T14:43:27.882Z,100913.52
2022-09-12T14:46:38.191Z,100912.25
2022-09-12T14:49:48.763Z,100914.21
2022-09-12T14:52:57.419Z,100914.17
2022-09-12T14:55:29.668Z,100915.77
2022-09-12T14:58:33.183Z,100918.75
2022-09-12T15:05:03.235Z,100924.03
2022-09-12T15:12:11.945Z,100924.78
2022-09-12T15:27:06.002Z,100937.62
2022-09-12T15:30:39.918Z,100940.90
2022-09-12T15:33:36.739Z,100935.23
2022-09-12T15:40:21.299Z,100935.16
2022-09-12T15:43:57.825Z,100937.93
2022-09-12T15:51:15.992Z,100949.73
2022-09-12T15:54:41.604Z,100945.27
2022-09-12T15:57:48.074Z,100944.23
2022-09-12T16:22:35.979Z,100956.42
2022-09-12T16:30:02.957Z,100955.75
2022-09-12T16:33:07.783Z,100964.44
2022-09-12T16:36:26.479Z,100962.02
2022-09-12T16:39:22.937Z,100961.52
2022-09-12T16:42:27.309Z,100965.88
2022-09-12T16:45:41.083Z,100968.40
2022-09-12T16:48:47.938Z,100969.46
2022-09-12T16:51:23.615Z,100966.87
2022-09-12T16:54:37.203Z,100966.33
2022-09-12T16:57:44.744Z,100967.08
2022-09-12T17:01:05.674Z,100972.08
2022-09-12T17:04:39.995Z,100971.04
2022-09-12T17:08:19.717Z,100969.50
2022-09-12T17:11:55.569Z,100972.17
2022-09-12T17:15:08.606Z,100973.73
2022-09-12T17:18:03.904Z,100972.83
2022-09-12T17:21:12.780Z,100975.10
2022-09-12T17:24:05.090Z,100977.81
2022-09-12T17:26:54.669Z,100981.59
2022-09-12T17:30:24.216Z,100980.92
2022-09-12T17:33:45.235Z,100983.17
2022-09-12T17:37:31.280Z,100984.01
2022-09-12T17:40:37.102Z,100982.17
2022-09-12T17:44:25.296Z,100985.71
2022-09-12T17:47:51.860Z,100993.03
2022-09-12T17:50:39.391Z,100993.11
2022-09-12T17:53:42.496Z,100997.59
2022-09-12T17:56:45.150Z,101000.86
2022-09-12T18:00:22.369Z,101003.80
2022-09-12T18:03:51.787Z,101008.88
2022-09-12T18:06:22.213Z,101004.48
2022-09-12T18:09:21.627Z,101007.11
2022-09-12T18:12:04.936Z,101011.31
2022-09-12T18:15:19.802Z,101012.60
2022-09-12T18:23:12.275Z,101017.20
2022-09-12T18:26:29.395Z,101017.05
2022-09-12T18:34:43.596Z,101023.33
2022-09-12T18:37:17.083Z,101022.76
2022-09-12T18:44:26.105Z,101034.30
2022-09-12T18:47:05.097Z,101031.19
2022-09-12T18:50:09.924Z,101034.30
2022-09-12T18:53:21.600Z,101035.88
2022-09-12T18:56:14.895Z,101030.60
2022-09-12T18:59:05.841Z,101034.04
2022-09-12T19:05:48.953Z,101040.16
2022-09-12T19:12:35.415Z,101052.61
2022-09-12T19:15:35.083Z,101054.56
2022-09-12T19:18:49.428Z,101060.05
2022-09-12T19:22:36.499Z,101064.86
2022-09-12T19:25:57.224Z,101066.91
2022-09-12T19:29:06.199Z,101076.81
2022-09-12T19:32:15.738Z,101080.02
2022-09-12T19:35:31.226Z,101083.84
2022-09-12T19:38:29.588Z,101090.16
2022-09-12T19:41:44.921Z,101092.79
2022-09-12T19:45:29.678Z,101099.64
2022-09-12T19:48:31.250Z,101105.48
2022-09-12T19:52:17.592Z,101104.48
2022-09-12T19:55:30.226Z,101109.41
2022-09-12T19:59:29.345Z,101114.95
2022-09-12T20:02:37.794Z,101118.38
2022-09-12T20:09:30.839Z,101133.30
2022-09-12T20:16:55.958Z,101133.65
2022-09-12T20:20:29.568Z,101136.80
2022-09-12T20:23:36.314Z,101136.75
2022-09-12T20:31:36.829Z,101131.98
2022-09-12T20:35:33.606Z,101124.34
2022-09-12T20:47:44.972Z,101132.18
2022-09-12T20:51:05.596Z,101137.63
2022-09-12T20:58:50.469Z,101141.83
2022-09-12T21:10:33.117Z,101141.13
2022-09-12T21:14:05.495Z,101148.55
2022-09-12T21:17:29.265Z,101145.80
2022-09-12T21:20:11.562Z,101144.58
2022-09-12T21:32:24.637Z,101154.24
2022-09-12T21:36:15.265Z,101159.95
2022-09-12T21:40:04.424Z,101164.94
2022-09-12T21:51:53.403Z,101165.02
2022-09-12T21:58:19.892Z,101172.49
2022-09-12T22:01:30.539Z,101180.77
2022-09-12T22:05:27.456Z,101190.55
2022-09-12T22:12:17.716Z,101192.88
2022-09-12T22:15:40.246Z,101190.02
2022-09-12T22:18:35.989Z,101189.52
2022-09-12T22:29:46.449Z,101193.09
2022-09-12T22:33:00.721Z,101198.06
2022-09-12T22:36:13.176Z,101201.21
2022-09-12T22:39:26.581Z,101203.40
2022-09-12T22:42:40.258Z,101206.31
2022-09-12T22:45:45.655Z,101207.35
2022-09-12T22:48:49.115Z,101205.94
2022-09-12T22:52:06.611Z,101209.80
2022-09-12T22:55:34.872Z,101212.20
2022-09-12T23:11:04.122Z,101228.35
2022-09-12T23:13:53.276Z,101237.23
2022-09-12T23:25:31.551Z,101231.52
2022-09-12T23:29:23.877Z,101229.71
2022-09-12T23:32:20.348Z,101227.95
2022-09-12T23:39:40.787Z,101229.64
2022-09-12T23:43:08.439Z,101230.35
2022-09-12T23:46:26.598Z,101228.66
2022-09-12T23:53:36.037Z,101218.73
